Time;durP1;ratioP1;P1;durP2;ratioP2;P2;SDS_P1;SDS_P2;PMS_P1;PMS_P2;Temp;Humidity;BMP_temperature;BMP_pressure;BME280_temperature;BME280_humidity;BME280_pressure;Samples;Min_cycle;Max_cycle;Signal;HPM_P1;HPM_P2
2023/10/18 00:01:57;;;;;;;9.77;6.23;;;;;;;5.45;100.00;101103.13;5113643;28;20039;-84
2023/10/18 00:04:23;;;;;;;10.75;5.72;;;;;;;5.44;100.00;101089.84;5113519;28;20138;-84
2023/10/18 00:06:54;;;;;;;9.20;5.85;;;;;;;5.43;100.00;101083.63;5115562;28;20035;-84
2023/10/18 00:12:03;;;;;;;11.17;6.30;;;;;;;5.43;100.00;101086.34;5114800;28;20518;-84
2023/10/18 00:14:29;;;;;;;12.55;6.38;;;;;;;5.45;100.00;101086.97;5113574;28;20040;-84
2023/10/18 00:16:54;;;;;;;10.37;6.13;;;;;;;5.47;100.00;101086.81;5114326;28;20122;-84
2023/10/18 00:19:20;;;;;;;9.73;5.43;;;;;;;5.50;100.00;101075.69;5096492;28;20467;-84
2023/10/18 00:21:45;;;;;;;10.37;5.57;;;;;;;5.49;100.00;101082.06;5096365;28;20066;-84
2023/10/18 00:24:11;;;;;;;8.90;5.97;;;;;;;5.51;100.00;101080.06;5113622;28;20034;-83
2023/10/18 00:26:38;;;;;;;10.97;6.37;;;;;;;5.49;100.00;101079.38;5095982;28;20399;-84
2023/10/18 00:29:03;;;;;;;8.38;5.55;;;;;;;5.49;100.00;101078.56;5112937;28;20050;-84
2023/10/18 00:31:29;;;;;;;11.53;6.13;;;;;;;5.47;100.00;101081.41;5095937;28;20061;-83
2023/10/18 00:33:56;;;;;;;11.68;5.78;;;;;;;5.49;100.00;101079.38;5113719;28;20309;-84
2023/10/18 00:36:22;;;;;;;11.95;6.47;;;;;;;5.52;100.00;101084.44;5096523;28;20097;-84
2023/10/18 00:38:48;;;;;;;11.27;6.03;;;;;;;5.52;100.00;101080.88;5112850;28;20484;-84
2023/10/18 00:41:21;;;;;;;11.07;5.77;;;;;;;5.51;100.00;101077.38;5113557;28;20476;-84
2023/10/18 00:43:47;;;;;;;7.80;5.53;;;;;;;5.52;100.00;101081.75;5112940;28;20536;-84
2023/10/18 00:46:16;;;;;;;9.87;5.60;;;;;;;5.49;100.00;101068.63;5112906;28;20044;-84
2023/10/18 00:48:44;;;;;;;9.95;6.03;;;;;;;5.49;100.00;101073.16;5113094;28;20372;-84
2023/10/18 00:51:13;;;;;;;13.52;5.93;;;;;;;5.48;100.00;101075.03;5114054;28;20048;-84
2023/10/18 00:53:42;;;;;;;8.77;5.60;;;;;;;5.51;100.00;101068.47;5114280;28;20106;-84
2023/10/18 00:56:09;;;;;;;11.25;6.00;;;;;;;5.53;100.00;101066.44;5113115;28;20039;-84
2023/10/18 00:58:35;;;;;;;8.18;5.25;;;;;;;5.50;100.00;101062.22;5113955;28;20047;-84
2023/10/18 01:01:09;;;;;;;9.35;5.80;;;;;;;5.51;100.00;101057.69;5130007;27;20035;-84
2023/10/18 01:03:36;;;;;;;13.60;6.00;;;;;;;5.51;100.00;101050.47;5113475;28;20058;-84
2023/10/18 01:06:12;;;;;;;8.55;6.05;;;;;;;5.52;100.00;101044.06;5129897;28;20047;-84
2023/10/18 01:08:38;;;;;;;11.95;5.78;;;;;;;5.53;100.00;101036.81;5112811;28;20032;-84
2023/10/18 01:11:10;;;;;;;10.65;6.05;;;;;;;5.53;100.00;101034.97;5095428;28;20109;-84
2023/10/18 01:13:45;;;;;;;10.02;5.60;;;;;;;5.58;100.00;101029.88;5114131;28;20024;-84
2023/10/18 01:16:15;;;;;;;9.95;5.80;;;;;;;5.58;100.00;101027.19;5113531;28;20035;-84
2023/10/18 01:18:48;;;;;;;14.85;5.78;;;;;;;5.54;100.00;101015.09;5113060;28;20184;-84
2023/10/18 01:21:19;;;;;;;12.88;5.65;;;;;;;5.51;100.00;101017.34;5114253;28;20032;-84
2023/10/18 01:23:53;;;;;;;11.65;6.28;;;;;;;5.51;100.00;101010.09;5112553;28;20044;-84
2023/10/18 01:26:29;;;;;;;10.73;5.68;;;;;;;5.50;100.00;101012.97;5114005;28;20035;-84
2023/10/18 01:28:58;;;;;;;8.48;5.47;;;;;;;5.50;100.00;101008.41;5113196;28;20035;-84
2023/10/18 01:31:24;;;;;;;8.27;5.40;;;;;;;5.48;100.00;101006.88;5113511;28;20039;-84
2023/10/18 01:33:50;;;;;;;11.23;6.00;;;;;;;5.44;100.00;101009.94;5114110;28;20082;-83
2023/10/18 01:36:22;;;;;;;9.77;5.45;;;;;;;5.43;100.00;101002.91;5112261;28;20043;-83
2023/10/18 01:38:56;;;;;;;11.07;5.72;;;;;;;5.43;100.00;100997.53;5115516;28;20164;-84
2023/10/18 01:41:38;;;;;;;10.20;5.78;;;;;;;5.43;100.00;101000.22;5116881;28;20192;-84
2023/10/18 01:44:10;;;;;;;7.80;5.30;;;;;;;5.42;100.00;100995.84;5102056;28;20040;-84
2023/10/18 01:46:37;;;;;;;10.95;5.57;;;;;;;5.39;100.00;100988.13;5100203;28;20386;-83
2023/10/18 01:49:04;;;;;;;8.68;5.70;;;;;;;5.37;100.00;100984.75;5116433;28;20070;-90
2023/10/18 01:51:30;;;;;;;11.52;6.28;;;;;;;5.51;100.00;100975.09;5115746;28;20060;-90
2023/10/18 01:53:55;;;;;;;11.52;6.10;;;;;;;5.42;100.00;100979.69;5117241;28;20127;-90
2023/10/18 01:56:21;;;;;;;10.60;6.22;;;;;;;5.41;100.00;100972.63;5116360;28;20471;-90
2023/10/18 01:58:48;;;;;;;13.52;5.95;;;;;;;5.36;100.00;100969.66;5116098;28;20119;-90
2023/10/18 02:01:16;;;;;;;13.48;5.65;;;;;;;5.33;100.00;100956.56;5116554;28;20107;-91
2023/10/18 02:03:44;;;;;;;10.65;5.55;;;;;;;5.34;100.00;100958.22;5100700;28;20036;-90
2023/10/18 02:06:10;;;;;;;8.57;5.57;;;;;;;5.32;100.00;100954.88;5099425;28;20046;-90
2023/10/18 02:08:38;;;;;;;9.57;5.85;;;;;;;5.33;100.00;100947.63;5098836;28;20035;-90
2023/10/18 02:11:07;;;;;;;9.30;5.57;;;;;;;5.33;100.00;100959.25;5115895;28;20043;-89
2023/10/18 02:13:36;;;;;;;9.20;5.15;;;;;;;5.34;100.00;100952.81;5116132;28;20036;-90
2023/10/18 02:16:04;;;;;;;8.82;5.43;;;;;;;5.32;100.00;100938.72;5099877;28;20177;-89
2023/10/18 02:18:30;;;;;;;10.68;5.75;;;;;;;5.29;100.00;100949.03;5117240;28;20069;-90
2023/10/18 02:20:55;;;;;;;11.03;5.77;;;;;;;5.26;100.00;100937.59;5115810;28;20123;-90
2023/10/18 02:23:26;;;;;;;9.97;5.40;;;;;;;5.30;100.00;100940.78;5082590;28;20062;-90
2023/10/18 02:25:52;;;;;;;8.77;4.93;;;;;;;5.24;100.00;100931.56;5116463;28;20040;-90
2023/10/18 02:28:27;;;;;;;10.00;5.20;;;;;;;5.33;100.00;100950.31;5098981;28;20039;-90
2023/10/18 02:30:58;;;;;;;8.07;5.05;;;;;;;5.32;100.00;100948.66;5116028;28;20059;-90
2023/10/18 02:33:27;;;;;;;7.43;5.63;;;;;;;5.31;100.00;100953.19;5115430;28;20118;-90
2023/10/18 02:35:57;;;;;;;10.18;5.22;;;;;;;5.30;100.00;100943.47;5116106;28;20032;-90
2023/10/18 02:38:23;;;;;;;9.07;5.80;;;;;;;5.32;100.00;100937.91;5116661;27;20040;-90
2023/10/18 02:40:49;;;;;;;10.73;5.68;;;;;;;5.29;100.00;100936.41;5115507;28;20043;-90
2023/10/18 02:43:15;;;;;;;11.10;6.00;;;;;;;5.26;100.00;100929.50;5115231;28;20044;-90
2023/10/18 02:45:42;;;;;;;7.68;5.38;;;;;;;5.28;100.00;100926.63;5115610;28;20471;-90
2023/10/18 02:48:13;;;;;;;10.93;5.65;;;;;;;5.31;100.00;100915.50;5115137;28;20043;-90
2023/10/18 02:50:42;;;;;;;7.90;5.40;;;;;;;5.33;100.00;100916.19;5098264;28;20066;-89
2023/10/18 02:53:07;;;;;;;9.50;5.47;;;;;;;5.35;100.00;100916.00;5115174;28;20046;-89
2023/10/18 02:55:38;;;;;;;9.38;5.32;;;;;;;5.34;100.00;100925.91;5115591;28;20032;-90
2023/10/18 02:58:06;;;;;;;10.10;5.40;;;;;;;5.31;100.00;100912.81;5116829;27;20130;-90
2023/10/18 03:00:34;;;;;;;10.50;5.55;;;;;;;5.31;100.00;100915.50;5115612;28;20062;-90
2023/10/18 03:03:01;;;;;;;11.18;5.38;;;;;;;5.33;100.00;100904.56;5115418;28;20043;-90
2023/10/18 03:05:28;;;;;;;10.95;5.53;;;;;;;5.34;100.00;100900.88;5131811;27;20035;-89
2023/10/18 03:07:53;;;;;;;7.88;5.20;;;;;;;5.34;100.00;100899.00;5115862;28;20495;-90
2023/10/18 03:10:28;;;;;;;11.13;5.57;;;;;;;5.33;100.00;100901.88;5097952;28;20078;-90
2023/10/18 03:12:53;;;;;;;10.05;5.00;;;;;;;5.34;100.00;100900.88;5099276;28;20131;-90
2023/10/18 03:15:21;;;;;;;10.70;5.63;;;;;;;5.32;100.00;100894.84;5114781;28;20134;-90
2023/10/18 03:17:49;;;;;;;11.05;5.60;;;;;;;5.34;100.00;100890.94;5114862;28;20042;-90
2023/10/18 03:20:23;;;;;;;10.37;5.57;;;;;;;5.33;100.00;100889.28;5098887;28;20036;-90
2023/10/18 03:22:50;;;;;;;8.98;5.13;;;;;;;5.31;100.00;100877.03;5115661;28;20059;-90
2023/10/18 03:25:26;;;;;;;9.15;5.25;;;;;;;5.32;100.00;100884.91;5115621;27;20046;-90
2023/10/18 03:28:04;;;;;;;9.00;5.32;;;;;;;5.32;100.00;100881.41;5115012;28;20046;-90
2023/10/18 03:30:46;;;;;;;8.38;5.45;;;;;;;5.33;100.00;100874.97;5100102;28;20054;-90
2023/10/18 03:33:12;;;;;;;11.27;5.33;;;;;;;5.36;100.00;100871.94;5099651;28;20035;-90
2023/10/18 03:35:40;;;;;;;10.68;5.40;;;;;;;5.37;100.00;100873.59;5114572;28;20039;-89
2023/10/18 03:38:21;;;;;;;11.05;5.70;;;;;;;5.36;100.00;100867.41;5114101;28;20035;-90
2023/10/18 03:40:56;;;;;;;9.68;5.40;;;;;;;5.39;100.00;100852.75;5116825;27;20132;-90
2023/10/18 03:43:26;;;;;;;10.02;5.35;;;;;;;5.40;100.00;100854.41;5114739;28;20039;-90
2023/10/18 03:48:45;;;;;;;10.23;5.93;;;;;;;5.41;100.00;100835.38;5114165;28;20036;-89
2023/10/18 03:51:17;;;;;;;7.85;5.28;;;;;;;5.43;100.00;100838.75;5113824;28;20048;-89
2023/10/18 03:53:42;;;;;;;12.25;5.40;;;;;;;5.44;100.00;100829.63;5114387;28;20387;-90
2023/10/18 03:56:09;;;;;;;10.37;6.07;;;;;;;5.44;100.00;100826.94;5114284;28;20046;-90
2023/10/18 03:58:36;;;;;;;10.52;5.97;;;;;;;5.49;100.00;100828.25;5113738;28;20048;-89
2023/10/18 04:01:01;;;;;;;8.18;5.32;;;;;;;5.50;100.00;100821.88;5114156;28;20035;-89
2023/10/18 04:03:29;;;;;;;10.80;5.77;;;;;;;5.48;100.00;100818.50;5114072;28;20510;-90
2023/10/18 04:06:03;;;;;;;11.27;5.32;;;;;;;5.51;100.00;100821.69;5113726;28;20081;-89
2023/10/18 04:08:29;;;;;;;8.10;5.80;;;;;;;5.52;100.00;100819.81;5114038;28;20387;-90
2023/10/18 04:10:58;;;;;;;11.10;5.88;;;;;;;5.50;100.00;100813.81;5113308;28;20043;-90
2023/10/18 04:13:31;;;;;;;10.07;5.68;;;;;;;5.53;100.00;100813.44;5113294;28;20077;-90
2023/10/18 04:16:11;;;;;;;14.50;5.65;;;;;;;5.54;100.00;100807.88;5098251;28;20040;-90
2023/10/18 04:18:41;;;;;;;8.45;5.38;;;;;;;5.59;100.00;100807.31;5100834;27;20032;-90
2023/10/18 04:21:12;;;;;;;10.75;5.53;;;;;;;5.57;100.00;100796.72;5113144;28;20126;-90
2023/10/18 04:23:38;;;;;;;8.32;5.88;;;;;;;5.61;100.00;100805.28;5114025;27;20044;-90
2023/10/18 04:26:05;;;;;;;8.83;4.87;;;;;;;5.60;100.00;100795.53;5113247;28;20035;-90
2023/10/18 04:28:38;;;;;;;10.77;5.18;;;;;;;5.59;100.00;100791.16;5096669;28;20038;-89
2023/10/18 04:31:11;;;;;;;12.32;5.70;;;;;;;5.61;100.00;100789.13;5113393;28;20035;-90
2023/10/18 04:33:43;;;;;;;8.20;4.68;;;;;;;5.58;100.00;100784.09;5097695;28;20047;-89
2023/10/18 04:36:12;;;;;;;9.23;5.18;;;;;;;5.58;100.00;100784.94;5113601;28;20035;-90
2023/10/18 04:38:45;;;;;;;11.30;5.22;;;;;;;5.62;100.00;100771.94;5113371;28;20089;-89
2023/10/18 04:41:23;;;;;;;13.20;5.50;;;;;;;5.59;100.00;100775.00;5113477;28;20518;-89
2023/10/18 04:44:11;;;;;;;8.45;5.38;;;;;;;5.62;100.00;100786.25;5113233;28;20479;-89
2023/10/18 04:46:37;;;;;;;13.75;5.70;;;;;;;5.62;100.00;100793.47;5097671;28;20127;-89
2023/10/18 04:54:16;;;;;;;10.23;5.32;;;;;;;5.56;100.00;100761.94;5114807;28;20134;-90
2023/10/18 04:56:46;;;;;;;8.02;5.10;;;;;;;5.63;100.00;100763.69;5113634;28;20096;-90
2023/10/18 05:04:28;;;;;;;8.27;5.05;;;;;;;5.66;100.00;100758.97;5114246;28;20032;-89
2023/10/18 05:06:54;;;;;;;10.30;5.82;;;;;;;5.65;100.00;100738.44;5113206;28;20418;-89
2023/10/18 05:09:29;;;;;;;9.00;5.43;;;;;;;5.67;100.00;100745.31;5112851;28;20088;-89
2023/10/18 05:11:57;;;;;;;9.32;4.85;;;;;;;5.71;100.00;100748.47;5113084;28;20036;-90
2023/10/18 05:14:35;;;;;;;12.05;5.65;;;;;;;5.69;100.00;100740.59;5116151;28;20040;-89
2023/10/18 05:17:10;;;;;;;8.40;5.15;;;;;;;5.70;100.00;100731.50;5117544;28;20054;-89
2023/10/18 05:19:42;;;;;;;10.15;4.97;;;;;;;5.72;100.00;100725.91;5116674;28;20059;-90
2023/10/18 05:22:17;;;;;;;8.85;4.88;;;;;;;5.75;100.00;100739.84;5118338;28;20032;-90
2023/10/18 05:24:46;;;;;;;8.80;4.93;;;;;;;5.74;100.00;100731.94;5122085;28;20043;-90
2023/10/18 05:27:27;;;;;;;10.68;5.43;;;;;;;5.74;100.00;100732.78;5083891;28;20040;-90
2023/10/18 05:29:58;;;;;;;16.50;5.50;;;;;;;5.74;100.00;100731.94;5101815;28;20035;-90
2023/10/18 05:32:47;;;;;;;9.23;5.10;;;;;;;5.77;100.00;100732.41;5117121;28;20104;-90
2023/10/18 05:37:50;;;;;;;12.80;6.15;;;;;;;5.75;100.00;100728.25;5116858;28;20364;-90
2023/10/18 05:43:12;;;;;;;10.23;5.47;;;;;;;5.70;100.00;100720.72;5117060;28;20048;-90
2023/10/18 05:45:40;;;;;;;10.90;5.88;;;;;;;5.70;100.00;100719.88;5118229;28;20036;-90
2023/10/18 05:48:13;;;;;;;10.15;5.78;;;;;;;5.68;100.00;100725.44;5116518;28;20039;-90
2023/10/18 05:50:39;;;;;;;11.77;5.45;;;;;;;5.70;100.00;100717.19;5116356;28;20043;-90
2023/10/18 05:53:11;;;;;;;15.32;5.55;;;;;;;5.69;100.00;100718.22;5116697;28;20050;-92
2023/10/18 05:55:39;;;;;;;14.15;5.40;;;;;;;5.70;100.00;100723.41;5117204;28;20047;-92
2023/10/18 05:58:07;;;;;;;9.73;5.60;;;;;;;5.69;100.00;100712.84;5119177;28;20533;-91
2023/10/18 06:00:33;;;;;;;15.45;6.18;;;;;;;5.68;100.00;100711.97;5116714;28;20039;-91
2023/10/18 06:03:02;;;;;;;13.40;6.07;;;;;;;5.66;100.00;100708.66;5117247;28;20461;-92
2023/10/18 06:05:33;;;;;;;10.70;5.70;;;;;;;5.66;100.00;100703.28;5117233;27;20165;-93
2023/10/18 06:07:59;;;;;;;12.63;5.80;;;;;;;5.67;100.00;100704.94;5116708;28;20130;-93
2023/10/18 06:10:26;;;;;;;14.43;6.30;;;;;;;5.64;100.00;100699.94;5117104;28;20044;-93
2023/10/18 06:13:05;;;;;;;9.15;5.78;;;;;;;5.65;100.00;100701.59;5115818;28;20039;-91
2023/10/18 06:15:42;;;;;;;11.65;5.40;;;;;;;5.64;100.00;100683.78;5101386;28;20173;-91
2023/10/18 06:18:17;;;;;;;15.50;5.70;;;;;;;5.65;100.00;100685.44;5133439;27;20032;-91
2023/10/18 06:20:46;;;;;;;9.63;5.55;;;;;;;5.62;100.00;100675.06;5116713;28;20028;-91
2023/10/18 06:25:49;;;;;;;11.10;5.20;;;;;;;5.67;100.00;100666.41;5116490;28;20046;-91
2023/10/18 06:28:21;;;;;;;10.27;4.85;;;;;;;5.72;100.00;100677.47;5132146;27;20406;-91
2023/10/18 06:30:50;;;;;;;9.55;5.55;;;;;;;5.73;100.00;100676.44;5099027;28;20115;-90
2023/10/18 06:33:19;;;;;;;23.33;7.90;;;;;;;5.78;100.00;100682.09;5118158;28;20055;-90
2023/10/18 06:35:53;;;;;;;13.43;5.68;;;;;;;5.79;100.00;100665.75;5115869;28;20039;-88
2023/10/18 06:38:22;;;;;;;12.18;5.55;;;;;;;5.89;100.00;100667.31;5133137;27;20096;-92
2023/10/18 06:41:00;;;;;;;12.95;5.28;;;;;;;5.90;100.00;100655.50;5115326;28;20059;-85
2023/10/18 06:43:31;;;;;;;11.57;5.28;;;;;;;6.01;100.00;100663.16;5100042;28;20046;-85
2023/10/18 06:45:57;;;;;;;12.32;4.90;;;;;;;6.10;100.00;100656.59;5115263;28;20040;-86
2023/10/18 06:48:26;;;;;;;9.13;5.30;;;;;;;6.17;100.00;100654.00;5115158;28;20464;-86
2023/10/18 06:50:53;;;;;;;9.20;5.13;;;;;;;6.24;100.00;100657.56;5116728;28;20048;-86
2023/10/18 06:53:20;;;;;;;9.77;5.00;;;;;;;6.32;100.00;100643.16;5116964;28;20037;-85
2023/10/18 06:55:55;;;;;;;9.20;5.63;;;;;;;6.36;100.00;100652.50;5116303;28;20036;-86
2023/10/18 07:00:51;;;;;;;11.10;5.27;;;;;;;6.45;100.00;100637.91;5114766;28;20043;-86
2023/10/18 07:03:16;;;;;;;8.18;4.95;;;;;;;6.48;100.00;100634.81;5114800;28;20096;-86
2023/10/18 07:05:54;;;;;;;10.50;5.07;;;;;;;6.58;100.00;100639.03;5115165;28;20043;-86
2023/10/18 07:08:20;;;;;;;8.50;4.63;;;;;;;6.65;100.00;100634.53;5114866;28;20089;-86
2023/10/18 07:10:55;;;;;;;7.75;5.20;;;;;;;6.70;100.00;100633.94;5114810;28;20039;-86
2023/10/18 07:13:32;;;;;;;9.25;4.82;;;;;;;6.76;100.00;100631.31;5116390;28;20024;-94
2023/10/18 07:16:00;;;;;;;16.50;5.15;;;;;;;6.83;100.00;100620.56;5115079;28;20118;-85
2023/10/18 07:18:27;;;;;;;8.77;5.10;;;;;;;6.93;100.00;100621.03;5115645;27;20138;-83
2023/10/18 07:20:52;;;;;;;9.50;5.22;;;;;;;7.03;100.00;100618.00;5097395;28;20042;-83
2023/10/18 07:23:21;;;;;;;9.70;5.20;;;;;;;7.14;100.00;100611.22;5114607;28;20126;-87
2023/10/18 07:25:46;;;;;;;8.83;4.70;;;;;;;7.20;100.00;100605.03;5114262;28;20043;-85
2023/10/18 07:28:12;;;;;;;10.55;4.70;;;;;;;7.28;100.00;100609.41;5115739;28;20043;-86
2023/10/18 07:30:44;;;;;;;7.37;4.37;;;;;;;7.32;100.00;100603.44;5097228;28;20078;-85
2023/10/18 07:33:10;;;;;;;9.90;4.45;;;;;;;7.45;100.00;100610.75;5114891;28;20115;-86
2023/10/18 07:35:44;;;;;;;7.53;4.63;;;;;;;7.52;100.00;100597.31;5114911;28;20115;-85
2023/10/18 07:38:09;;;;;;;10.27;5.00;;;;;;;7.60;100.00;100597.09;5098284;28;20460;-85
2023/10/18 07:40:40;;;;;;;10.05;4.60;;;;;;;7.70;100.00;100591.34;5115377;28;20039;-85
2023/10/18 07:43:15;;;;;;;8.13;4.63;;;;;;;7.79;99.88;100595.50;5113791;28;20036;-87
2023/10/18 07:45:40;;;;;;;10.63;4.68;;;;;;;7.93;99.38;100595.53;5098618;28;20460;-84
2023/10/18 07:48:16;;;;;;;;;;;;;;;;;;;;;
2023/10/18 07:50:42;;;;;;;9.93;5.53;;;;;;;8.13;97.81;100580.22;5117906;27;20280;-86
2023/10/18 07:53:13;;;;;;;10.90;4.72;;;;;;;8.22;97.71;100573.59;5136481;27;20118;-88
2023/10/18 07:55:41;;;;;;;13.57;4.60;;;;;;;8.32;96.87;100575.03;5118074;27;20039;-85
2023/10/18 07:58:26;;;;;;;9.43;4.47;;;;;;;8.47;96.82;100569.47;5118024;27;20031;-85
2023/10/18 08:03:32;;;;;;;7.03;4.10;;;;;;;8.72;94.88;100564.25;5135815;27;20031;-90
2023/10/18 08:05:59;;;;;;;7.18;4.10;;;;;;;8.78;93.93;100566.09;5117386;27;20043;-91
2023/10/18 08:08:28;;;;;;;10.03;4.77;;;;;;;8.82;93.24;100569.22;5116962;27;20141;-92
2023/10/18 08:10:54;;;;;;;7.57;4.50;;;;;;;8.83;93.17;100560.91;5083657;27;20581;-90
2023/10/18 08:13:28;;;;;;;11.45;5.00;;;;;;;8.86;92.94;100563.19;5116889;27;20076;-90
2023/10/18 08:15:55;;;;;;;9.27;5.10;;;;;;;8.90;92.62;100556.31;5117751;27;20039;-90
2023/10/18 08:21:37;;;;;;;6.40;4.20;;;;;;;8.93;93.00;100558.59;5067978;27;20041;-91
2023/10/18 08:24:19;;;;;;;14.55;4.57;;;;;;;8.97;92.29;100552.75;5117237;27;20031;-90
2023/10/18 08:26:47;;;;;;;8.73;4.57;;;;;;;8.94;92.21;100537.75;5103117;27;20051;-91
2023/10/18 08:29:20;;;;;;;8.75;4.30;;;;;;;8.95;92.23;100537.56;5135183;27;20070;-91
2023/10/18 08:31:55;;;;;;;8.50;4.32;;;;;;;8.98;91.96;100532.78;5116521;27;20505;-91
2023/10/18 08:34:26;;;;;;;10.90;4.97;;;;;;;9.01;92.58;100529.66;5085199;27;20046;-91
2023/10/18 08:37:06;;;;;;;8.35;4.85;;;;;;;9.04;92.20;100529.22;5117318;27;20125;-90
2023/10/18 08:39:31;;;;;;;9.02;4.80;;;;;;;9.08;91.67;100525.88;5116616;27;20043;-90
2023/10/18 08:42:13;;;;;;;10.17;4.47;;;;;;;9.12;91.23;100527.09;5116363;27;20049;-90
2023/10/18 08:44:50;;;;;;;9.48;4.72;;;;;;;9.20;91.12;100531.44;5116608;27;20131;-90
2023/10/18 08:47:17;;;;;;;7.30;4.22;;;;;;;9.32;90.64;100520.78;5117279;27;20035;-91
2023/10/18 08:49:44;;;;;;;10.60;5.40;;;;;;;9.42;90.18;100518.44;5116883;27;20074;-91
2023/10/18 08:52:22;;;;;;;10.43;4.55;;;;;;;9.58;89.70;100521.69;5115887;27;20047;-92
2023/10/18 08:54:49;;;;;;;8.18;4.38;;;;;;;9.71;89.40;100518.88;5116677;27;20506;-91
2023/10/18 08:57:34;;;;;;;7.53;4.53;;;;;;;9.82;89.01;100520.91;5134706;27;20092;-89
2023/10/18 09:02:58;;;;;;;9.38;4.55;;;;;;;10.14;87.64;100504.66;5077553;27;20047;-90
2023/10/18 09:05:28;;;;;;;7.63;4.40;;;;;;;10.24;87.25;100503.31;5134665;27;20058;-89
2023/10/18 09:07:59;;;;;;;7.70;4.07;;;;;;;10.34;86.32;100498.25;5135058;27;20049;-90
2023/10/18 09:10:33;;;;;;;7.65;4.70;;;;;;;10.48;86.07;100491.66;5135222;28;20092;-89
2023/10/18 09:18:21;;;;;;;8.07;4.18;;;;;;;10.79;83.82;100470.88;5134660;28;20451;-90
2023/10/18 09:20:49;;;;;;;10.15;4.40;;;;;;;10.86;83.25;100473.50;5116040;28;20049;-89
2023/10/18 09:23:21;;;;;;;9.52;4.30;;;;;;;10.99;83.35;100462.50;5116423;28;20536;-89
2023/10/18 09:26:12;;;;;;;8.68;4.50;;;;;;;11.17;83.19;100460.81;5116202;28;20035;-89
2023/10/18 09:28:41;;;;;;;9.93;4.38;;;;;;;11.29;81.62;100455.44;5116345;28;20123;-90
2023/10/18 09:31:12;;;;;;;7.10;4.35;;;;;;;11.42;80.54;100463.41;5134658;28;20148;-90
2023/10/18 09:33:51;;;;;;;7.17;3.93;;;;;;;11.54;80.06;100452.56;5135880;28;20035;-90
2023/10/18 09:36:27;;;;;;;7.63;4.18;;;;;;;11.68;79.48;100454.03;5115926;28;20125;-89
2023/10/18 09:38:54;;;;;;;9.48;4.35;;;;;;;11.88;79.59;100447.44;5116236;28;20497;-89
2023/10/18 09:41:22;;;;;;;6.15;3.80;;;;;;;12.03;78.58;100439.72;5116216;28;20368;-90
2023/10/18 09:44:00;;;;;;;6.97;4.18;;;;;;;12.13;77.72;100422.81;5133960;28;20042;-90
2023/10/18 09:46:34;;;;;;;7.63;3.57;;;;;;;12.16;76.67;100410.63;5116538;28;20479;-89
2023/10/18 09:48:59;;;;;;;7.55;3.90;;;;;;;12.23;76.66;100405.91;5116790;28;20035;-89
2023/10/18 09:51:29;;;;;;;13.40;4.40;;;;;;;12.40;77.18;100417.72;5112412;28;20480;-90
2023/10/18 09:53:55;;;;;;;6.38;3.55;;;;;;;12.55;75.69;100402.78;5112031;28;20040;-90
2023/10/18 09:56:27;;;;;;;7.67;4.50;;;;;;;12.72;76.14;100398.25;5112310;28;20506;-91
2023/10/18 09:59:05;;;;;;;145.93;10.98;;;;;;;13.04;76.50;100400.53;5112940;28;20031;-85
2023/10/18 10:04:14;;;;;;;12.70;4.00;;;;;;;13.50;72.37;100392.41;5118312;28;20328;-87
2023/10/18 10:06:55;;;;;;;7.90;3.90;;;;;;;13.63;71.44;100391.25;5116143;28;20043;-84
2023/10/18 10:09:33;;;;;;;6.20;3.60;;;;;;;13.81;70.99;100390.19;5116972;28;20040;-86
2023/10/18 10:12:00;;;;;;;8.23;3.60;;;;;;;14.02;70.95;100370.34;5116305;28;20383;-87
2023/10/18 10:14:29;;;;;;;6.32;3.58;;;;;;;14.15;70.12;100369.16;5116158;28;20035;-87
2023/10/18 10:17:17;;;;;;;9.10;3.87;;;;;;;14.31;71.03;100362.00;5116097;28;20093;-85
2023/10/18 10:19:48;;;;;;;8.98;4.00;;;;;;;14.49;69.63;100352.69;5116020;28;20124;-84
2023/10/18 10:22:17;;;;;;;7.18;4.15;;;;;;;14.58;68.58;100350.34;5116146;28;20036;-84
2023/10/18 10:24:43;;;;;;;5.25;3.70;;;;;;;14.68;67.92;100346.94;5116996;28;20039;-84
2023/10/18 10:27:27;;;;;;;7.00;4.13;;;;;;;14.83;67.96;100352.56;5116084;28;20040;-85
2023/10/18 10:32:52;;;;;;;11.70;3.55;;;;;;;15.22;66.99;100332.47;5116876;28;20024;-83
2023/10/18 10:35:24;;;;;;;7.93;3.70;;;;;;;15.32;65.66;100320.81;5115450;28;20066;-84
2023/10/18 10:37:51;;;;;;;6.88;4.00;;;;;;;15.46;65.25;100321.19;5099113;28;20050;-86
2023/10/18 10:43:03;;;;;;;6.50;3.97;;;;;;;15.72;64.79;100314.88;5116528;28;20038;-86
2023/10/18 10:45:30;;;;;;;8.77;4.00;;;;;;;15.87;64.19;100305.13;5117234;28;20031;-84
2023/10/18 10:51:20;;;;;;;7.20;3.75;;;;;;;16.38;63.98;100301.84;5117090;27;20047;-87
2023/10/18 10:53:58;;;;;;;8.15;3.83;;;;;;;16.82;61.85;100295.97;5121509;27;20039;-93
2023/10/18 10:56:33;;;;;;;9.70;4.30;;;;;;;17.32;60.21;100291.66;5119134;27;20114;-94
2023/10/18 11:01:43;;;;;;;6.20;3.78;;;;;;;19.26;56.42;100273.91;5137574;27;20475;-94
2023/10/18 11:04:17;;;;;;;5.22;3.83;;;;;;;19.95;53.17;100268.34;5119291;27;20031;-94
2023/10/18 11:06:50;;;;;;;6.38;3.88;;;;;;;20.74;49.76;100247.78;5119391;27;20046;-94
2023/10/18 11:09:18;;;;;;;7.00;4.30;;;;;;;21.72;48.94;100260.81;5120165;27;20035;-94
2023/10/18 11:11:45;;;;;;;6.20;4.05;;;;;;;22.79;45.59;100248.66;5100916;27;20031;-94
2023/10/18 11:14:18;;;;;;;9.15;4.20;;;;;;;23.68;41.90;100237.91;5118832;27;20126;-94
2023/10/18 11:16:53;;;;;;;6.95;4.15;;;;;;;24.60;40.24;100245.53;5119318;27;20043;-94
2023/10/18 11:19:24;;;;;;;6.15;3.80;;;;;;;25.42;37.42;100235.69;5119744;27;20027;-95
2023/10/18 11:21:55;;;;;;;5.47;4.10;;;;;;;26.08;34.73;100227.78;5118772;27;20042;-94
2023/10/18 11:24:21;;;;;;;5.28;3.80;;;;;;;25.95;34.27;100226.00;5119779;27;20042;-95
2023/10/18 11:26:52;;;;;;;6.15;4.40;;;;;;;25.60;35.92;100223.41;5118600;27;20479;-92
2023/10/18 11:29:24;;;;;;;6.88;3.70;;;;;;;25.65;33.99;100211.28;5118695;27;20042;-88
2023/10/18 11:31:58;;;;;;;12.90;5.17;;;;;;;26.16;34.47;100203.88;5137766;27;20054;-91
2023/10/18 11:34:24;;;;;;;7.85;3.28;;;;;;;25.66;34.41;100199.00;5118439;27;20077;-87
2023/10/18 11:37:01;;;;;;;6.90;3.45;;;;;;;25.02;35.18;100208.97;5118784;27;20456;-86
2023/10/18 11:39:32;;;;;;;7.70;4.25;;;;;;;24.44;35.96;100205.53;5102894;27;20059;-84
2023/10/18 11:41:59;;;;;;;8.02;4.10;;;;;;;23.37;37.23;100188.91;5118811;27;20058;-90
2023/10/18 11:44:31;;;;;;;6.10;4.47;;;;;;;22.76;39.25;100183.75;5135919;27;20043;-90
2023/10/18 11:47:12;;;;;;;15.13;4.93;;;;;;;22.22;40.67;100171.72;5118006;27;20435;-85
2023/10/18 11:49:39;;;;;;;6.72;4.10;;;;;;;21.54;41.33;100164.00;5137621;27;20071;-92
2023/10/18 11:52:12;;;;;;;8.20;4.05;;;;;;;21.22;43.00;100164.84;5115891;28;20052;-92
2023/10/18 11:54:37;;;;;;;7.72;4.20;;;;;;;20.88;42.56;100154.94;5119244;28;20573;-92
2023/10/18 11:57:23;;;;;;;5.60;4.33;;;;;;;20.56;43.41;100145.50;5103007;28;20079;-92
2023/10/18 11:59:51;;;;;;;9.15;4.28;;;;;;;20.35;43.69;100145.00;5121030;28;20031;-92
2023/10/18 12:02:16;;;;;;;7.13;3.70;;;;;;;20.38;44.18;100152.66;5120324;28;20035;-92
2023/10/18 12:04:48;;;;;;;7.70;4.70;;;;;;;20.19;43.72;100140.81;5117629;28;20062;-92
2023/10/18 12:07:14;;;;;;;9.43;4.35;;;;;;;20.16;43.47;100134.78;5117789;28;20079;-92
2023/10/18 12:09:47;;;;;;;5.80;4.17;;;;;;;20.28;44.16;100125.25;5118405;28;20050;-95
2023/10/18 12:12:19;;;;;;;5.63;4.15;;;;;;;20.18;43.70;100114.41;5115131;28;20035;-95
2023/10/18 12:14:48;;;;;;;6.20;4.05;;;;;;;20.24;43.59;100115.94;5100459;28;20189;-95
2023/10/18 12:17:14;;;;;;;7.30;4.03;;;;;;;20.37;43.48;100095.13;5115928;27;20062;-95
2023/10/18 12:19:41;;;;;;;6.32;4.05;;;;;;;20.77;43.01;100098.34;5119217;28;20063;-90
2023/10/18 12:22:15;;;;;;;5.50;3.70;;;;;;;21.03;43.12;100082.16;5113879;28;20035;-92
2023/10/18 12:24:41;;;;;;;4.78;3.60;;;;;;;21.37;42.02;100089.25;5113586;28;20537;-91
2023/10/18 12:29:52;;;;;;;7.82;3.40;;;;;;;20.59;44.59;100083.47;5115510;28;20050;-91
2023/10/18 12:32:26;;;;;;;6.77;3.03;;;;;;;20.53;44.75;100087.41;5113500;28;20039;-94
2023/10/18 12:34:58;;;;;;;9.07;3.50;;;;;;;20.37;44.50;100078.59;5115410;28;20027;-92
2023/10/18 12:37:32;;;;;;;27.65;5.18;;;;;;;20.41;45.07;100068.59;5117068;27;20063;-95